Latest Weather Observations for Yunta

IDS60801

Issued at 9:41 am CDT Saturday 10 December 2022 (issued every 10 minutes, with the page automatically refreshed every 10 minutes)

About weather observations | Map of weather stations | Latest weather observations for SA | Other Formats
Station Details ID: 020062 Name: YUNTA AIRSTRIP Lat: -32.57 Lon: 139.56 Height: 300.0 m
Data from the previous 72 hours. | See also: Recent months at Yunta
Date/Time
CDT
Temp
°C
App
Temp
°C
Dew
Point
°C
Rel
Hum
%
Delta-T
°C
Wind Press
QNH
hPa
Press
MSL
hPa
Rain since
9am
mm
Dir  Spd
km/h
Gust
km/h
Spd
kts
Gust
kts
10/09:30am 23.5 15.7 1.8 24 10.4 N 32 43 17 23 1013.0 1011.6 0.0
10/09:00am 22.3 15.8 2.4 27 9.5 N 26 35 14 19 1013.1 1011.7 0.0
10/08:30am 21.4 14.8 2.2 28 9.1 N 26 35 14 19 1013.3 1011.9 0.0
10/08:00am 20.5 14.6 1.9 29 8.7 N 22 35 12 19 1013.2 1011.8 0.0
10/07:30am 20.3 15.8 2.2 30 8.5 NNE 15 24 8 13 1012.9 1011.5 0.0
10/07:00am 18.7 14.6 2.1 33 7.7 NNE 13 17 7 9 1012.9 1011.5 0.0
10/06:30am 17.0 13.3 2.6 38 6.7 NNE 11 15 6 8 1012.8 1011.4 0.0
10/06:00am 16.2 11.8 2.6 40 6.2 NE 15 19 8 10 1012.5 1011.1 0.0
10/05:30am 16.0 12.3 2.4 40 6.2 NE 11 13 6 7 1012.7 1011.3 0.0
10/05:00am 16.5 12.8 2.5 39 6.4 NE 11 13 6 7 1012.5 1011.1 0.0
10/04:30am 15.3 13.0 2.5 42 5.8 NE 4 6 2 3 1012.3 1010.9 0.0
10/04:00am 15.5 13.8 2.0 40 6.1 CALM 0 4 0 2 1012.2 1010.8 0.0
10/03:30am 16.4 14.7 2.1 38 6.5 CALM 0 6 0 3 1012.5 1011.1 0.0
10/03:00am 16.8 13.8 2.0 37 6.7 NE 7 13 4 7 1012.6 1011.2 0.0
10/02:30am 17.0 13.6 1.8 36 6.9 ENE 9 15 5 8 1012.7 1011.3 0.0
10/02:00am 17.4 14.0 1.8 35 7.1 ENE 9 11 5 6 1013.0 1011.6 0.0
10/01:30am 16.4 14.7 2.1 38 6.5 CALM 0 6 0 3 1013.1 1011.7 0.0
10/01:00am 16.7 14.3 2.0 37 6.7 ENE 4 6 2 3 1013.3 1011.9 0.0
10/12:30am 18.2 15.2 2.1 34 7.4 ENE 7 13 4 7 1013.5 1012.1 0.0
10/12:00am 18.6 14.9 2.4 34 7.5 ESE 11 15 6 8 1013.7 1012.3 0.0
 
Date/Time
CDT
Temp
°C
App
Temp
°C
Dew
Point
°C
Rel
Hum
%
Delta-T
°C
Wind Press
QNH
hPa
Press
MSL
hPa
Rain since
9am
mm
Dir  Spd
km/h
Gust
km/h
Spd
kts
Gust
kts
09/11:30pm 17.5 14.7 1.9 35 7.1 ESE 6 7 3 4 1013.8 1012.4 0.0
09/11:00pm 17.7 15.2 1.7 34 7.3 ESE 4 6 2 3 1013.6 1012.2 0.0
09/10:30pm 18.2 15.3 1.7 33 7.6 ESE 6 7 3 4 1013.6 1012.2 0.0
09/10:00pm 19.0 16.2 2.0 32 7.9 ESE 6 6 3 3 1013.4 1012.0 0.0
09/09:30pm 20.0 16.6 1.9 30 8.4 ESE 9 11 5 6 1013.1 1011.7 0.0
09/09:00pm 21.8 18.3 1.5 26 9.5 ESE 9 13 5 7 1012.7 1011.3 0.0
09/08:30pm 23.1 18.9 1.5 24 10.2 ESE 13 19 7 10 1012.4 1011.0 0.0
09/08:00pm 24.3 20.0 1.2 22 11.0 ESE 13 19 7 10 1012.4 1011.0 0.0
09/07:30pm 25.6 21.7 1.0 20 11.8 ESE 11 17 6 9 1012.2 1010.8 0.0
09/07:00pm 26.2 21.5 0.8 19 12.1 ESE 15 22 8 12 1012.0 1010.6 0.0
09/06:30pm 26.5 23.8 0.3 18 12.5 SW 4 9 2 5 1011.8 1010.5 0.0
09/06:00pm 27.1 24.1 0.8 18 12.7 SW 6 11 3 6 1011.7 1010.4 0.0
09/05:30pm 27.2 24.0 0.8 18 12.7 SW 7 11 4 6 1011.7 1010.4 0.0
09/05:00pm 27.1 23.5 0.8 18 12.7 SW 9 17 5 9 1012.1 1010.7 0.0
09/04:30pm 26.3 22.2 0.1 18 12.4 SSE 11 20 6 11 1012.6 1011.2 0.0
09/04:00pm 26.4 22.8 0.9 19 12.2 ENE 9 17 5 9 1012.9 1011.5 0.0
09/03:30pm 26.3 23.3 0.9 19 12.2 ENE 6 13 3 7 1013.2 1011.8 0.0
09/03:00pm 25.3 22.3 0.8 20 11.6 ENE 6 9 3 5 1013.5 1012.1 0.0
09/02:30pm 24.8 21.8 1.7 22 11.1 ENE 7 11 4 6 1013.9 1012.5 0.0
09/02:00pm 23.1 20.6 1.5 24 10.2 SE 4 9 2 5 1014.2 1012.9 0.0
09/01:30pm 22.6 19.6 2.1 26 9.8 SE 7 13 4 7 1014.6 1013.3 0.0
09/01:00pm 22.1 19.2 1.7 26 9.6 SE 6 9 3 5 1015.1 1013.8 0.0
09/12:30pm 20.7 18.0 2.5 30 8.6 SE 6 13 3 7 1015.5 1014.1 0.0
09/12:00pm 20.0 17.1 2.4 31 8.3 SE 7 15 4 8 1016.0 1014.6 0.0
09/11:30am 18.5 14.9 3.2 36 7.2 SE 11 20 6 11 1016.3 1014.9 0.0
09/11:00am 17.8 14.2 2.9 37 7.0 SE 11 19 6 10 1016.5 1015.1 0.0
09/10:30am 16.3 12.0 3.0 41 6.1 SSE 15 20 8 11 1017.4 1016.1 0.0
09/10:00am 15.3 11.0 3.1 44 5.6 SSE 15 22 8 12 1018.2 1016.9 0.0
09/09:30am 14.9 10.6 3.1 45 5.4 SE 15 20 8 11 1017.3 1016.0 0.0
09/09:00am 13.9 10.4 3.4 49 4.8 SE 11 19 6 10 1017.0 1015.6 0.0
09/08:30am 13.3 9.3 3.1 50 4.6 SSE 13 19 7 10 1016.5 1015.1 0.0
09/08:00am 13.1 9.2 3.2 51 4.5 SSE 13 17 7 9 1016.4 1015.0 0.0
09/07:30am 12.5 8.2 3.2 53 4.2 SSE 15 20 8 11 1016.5 1015.1 0.0
09/07:00am 12.6 9.0 3.0 52 4.3 SSE 11 17 6 9 1016.1 1014.7 0.0
09/06:30am 12.6 9.0 2.7 51 4.4 SSE 11 17 6 9 1015.7 1014.3 0.0
09/06:00am 12.7 9.5 3.1 52 4.3 SSE 9 15 5 8 1014.6 1013.3 0.0
09/05:30am 12.8 9.9 2.6 50 4.5 SSE 7 11 4 6 1014.6 1013.3 0.0
09/05:00am 12.9 9.3 2.7 50 4.6 SSE 11 17 6 9 1014.3 1013.0 0.0
09/04:30am 13.2 10.0 3.3 51 4.5 SSE 9 15 5 8 1014.6 1013.3 0.0
09/04:00am 13.4 10.7 3.5 51 4.5 SSE 7 11 4 6 1014.7 1013.4 0.0
09/03:30am 13.8 10.3 3.6 50 4.7 SSE 11 17 6 9 1014.9 1013.6 0.0
09/03:00am 13.5 10.3 3.3 50 4.6 SSE 9 13 5 7 1015.3 1014.0 0.0
09/02:30am 13.7 10.9 2.9 48 4.9 SSE 7 9 4 5 1015.6 1014.2 0.0
09/02:00am 14.5 10.5 2.7 45 5.3 SSE 13 19 7 10 1015.8 1014.4 0.0
09/01:30am 15.1 11.1 3.0 44 5.5 SSE 13 17 7 9 1016.0 1014.6 0.0
09/01:00am 15.6 12.0 2.7 42 5.9 SSE 11 15 6 8 1016.3 1014.9 0.0
09/12:30am 16.7 11.5 2.7 39 6.5 SSE 19 30 10 16 1016.0 1014.6 0.0
09/12:00am 16.4 12.3 2.4 39 6.4 SSE 13 17 7 9 1016.2 1014.8 0.0
 
Date/Time
CDT
Temp
°C
App
Temp
°C
Dew
Point
°C
Rel
Hum
%
Delta-T
°C
Wind Press
QNH
hPa
Press
MSL
hPa
Rain since
9am
mm
Dir  Spd
km/h
Gust
km/h
Spd
kts
Gust
kts
08/11:30pm 17.2 12.7 2.0 36 6.9 SSE 15 19 8 10 1016.2 1014.8 0.0
08/11:00pm 17.3 13.9 2.1 36 7.0 SSE 9 17 5 9 1016.2 1014.8 0.0
08/10:30pm 18.3 13.4 2.2 34 7.4 S 17 24 9 13 1016.0 1014.6 0.0
08/10:00pm 18.0 13.8 1.9 34 7.4 S 13 20 7 11 1016.0 1014.6 0.0
08/09:30pm 17.1 14.0 1.5 35 7.0 S 7 11 4 6 1015.8 1014.4 0.0
08/09:00pm 18.4 15.3 1.4 32 7.7 S 7 9 4 5 1015.8 1014.4 0.0
08/08:30pm 19.6 15.8 1.6 30 8.3 SSE 11 19 6 10 1015.7 1014.3 0.0
08/08:00pm 20.4 15.8 1.3 28 8.8 SSE 15 20 8 11 1015.0 1013.7 0.0
08/07:30pm 21.5 16.8 1.2 26 9.4 SSE 15 19 8 10 1014.6 1013.3 0.0
08/07:00pm 21.8 17.8 0.4 24 9.8 S 11 19 6 10 1014.3 1013.0 0.0
08/06:30pm 22.3 17.2 0.8 24 10.0 S 17 26 9 14 1014.3 1013.0 0.0
08/06:00pm 22.4 17.6 0.3 23 10.2 S 15 28 8 15 1014.2 1012.9 0.0
08/05:30pm 22.3 16.5 -0.4 22 10.3 SSE 20 30 11 16 1013.8 1012.4 0.0
08/05:00pm 22.8 17.2 0.0 22 10.5 S 19 33 10 18 1013.9 1012.5 0.0
08/04:30pm 22.8 17.2 0.0 22 10.5 SSE 19 28 10 15 1013.9 1012.5 0.0
08/04:00pm 22.1 16.8 -0.6 22 10.2 S 17 28 9 15 1014.4 1013.1 0.0
08/03:30pm 22.1 17.6 0.0 23 10.1 SSE 13 22 7 12 1014.7 1013.4 0.0
08/03:00pm 21.9 16.2 -0.8 22 10.2 S 19 28 10 15 1015.1 1013.8 0.0
08/02:30pm 21.4 16.1 -0.6 23 9.9 S 17 32 9 17 1015.7 1014.3 0.0
08/02:00pm 20.4 14.7 -0.8 24 9.4 S 19 30 10 16 1016.1 1014.7 0.0
08/01:30pm 20.4 14.7 0.8 27 9.0 SE 20 30 11 16 1016.3 1014.9 0.0
08/01:00pm 19.9 14.2 0.4 27 8.8 SE 20 37 11 20 1016.5 1015.1 0.0
08/12:30pm 18.7 13.0 0.8 30 8.1 SE 20 39 11 21 1016.7 1015.3 0.0
08/12:00pm 17.6 12.2 1.2 33 7.4 SSE 19 32 10 17 1017.1 1015.7 0.0
08/11:30am 17.5 11.9 1.5 34 7.2 SSE 20 35 11 19 1017.4 1016.1 0.0
08/11:00am 16.1 10.1 1.0 36 6.7 SSE 22 32 12 17 1017.4 1016.1 0.0
08/10:30am 15.4 9.4 1.2 38 6.3 SSE 22 32 12 17 1017.6 1016.3 0.0
08/10:00am 14.3 7.9 1.2 41 5.7 SSE 24 35 13 19 1017.8 1016.5 0.0
08/09:30am 13.9 7.7 1.9 44 5.3 SSE 24 37 13 20 1017.8 1016.5 0.0
08/09:00am 13.3 6.3 2.2 47 4.9 SSE 28 44 15 24 1017.8 1016.5 0.2
08/08:30am 12.6 5.6 2.2 49 4.6 SSE 28 39 15 21 1017.6 1016.3 0.2
08/08:00am 12.1 6.7 2.6 52 4.2 SSE 20 32 11 17 1017.3 1016.0 0.2
08/07:30am 10.9 5.2 3.0 58 3.5 SSE 22 32 12 17 1016.8 1015.4 0.2
08/07:00am 10.0 5.6 2.8 61 3.1 S 15 22 8 12 - - 0.2
08/06:30am 8.9 4.1 2.7 65 2.7 S 17 22 9 12 1016.5 1015.1 0.2
08/06:00am 8.1 4.4 2.4 67 2.4 S 11 17 6 9 1016.4 1015.0 0.2
08/05:30am 8.4 3.6 2.4 66 2.6 S 17 20 9 11 1016.1 1014.7 0.2
08/05:00am 8.8 4.4 2.6 65 2.7 S 15 20 8 11 1015.6 1014.2 0.2
08/04:30am 9.4 5.0 2.5 62 3.0 S 15 20 8 11 1015.3 1014.0 0.2
08/04:00am 10.0 4.8 2.4 59 3.3 SSE 19 30 10 16 1015.2 1013.9 0.2
08/03:30am 10.6 4.4 2.4 57 3.6 SSE 24 37 13 20 1015.1 1013.8 0.2
08/03:00am 10.7 6.1 3.7 62 3.1 S 17 24 9 13 1015.2 1013.9 0.2
08/02:30am 11.2 5.6 3.5 59 3.5 S 22 30 12 16 1015.0 1013.7 0.2
08/02:00am 11.7 6.4 3.2 56 3.8 S 20 32 11 17 1015.1 1013.8 0.2
08/01:30am 12.5 7.3 5.7 63 3.2 SSE 22 33 12 18 1015.2 1013.9 0.2
08/01:00am 13.4 8.9 6.0 61 3.6 S 19 26 10 14 1015.1 1013.8 0.2
08/12:30am 13.4 8.7 6.0 61 3.6 S 20 30 11 16 1015.3 1014.0 0.2
08/12:00am 14.0 8.9 6.1 59 3.8 SSW 22 30 12 16 1015.3 1014.0 0.2
 
Date/Time
CDT
Temp
°C
App
Temp
°C
Dew
Point
°C
Rel
Hum
%
Delta-T
°C
Wind Press
QNH
hPa
Press
MSL
hPa
Rain since
9am
mm
Dir  Spd
km/h
Gust
km/h
Spd
kts
Gust
kts
07/11:30pm 14.6 9.5 6.2 57 4.1 SSW 22 32 12 17 1015.1 1013.8 0.2
07/11:00pm 15.3 10.2 5.8 53 4.6 SSW 22 32 12 17 1014.9 1013.6 0.2
07/10:30pm 15.9 10.7 5.5 50 5.1 SSW 22 33 12 18 1014.4 1013.1 0.2
07/10:00pm 16.8 11.7 4.2 43 6.0 SSW 20 32 11 17 1013.9 1012.5 0.2
07/09:30pm 17.3 10.6 3.9 41 6.4 SSW 28 41 15 22 1013.5 1012.1 0.2
07/09:00pm 17.9 10.7 3.0 37 7.0 S 30 44 16 24 1013.1 1011.7 0.2
07/08:30pm 18.7 11.4 2.5 34 7.6 SSW 30 43 16 23 1012.5 1011.1 0.2
07/08:00pm 19.5 12.3 2.8 33 7.9 S 30 43 16 23 1011.8 1010.5 0.2
07/07:30pm 20.6 13.3 2.4 30 8.6 S 30 43 16 23 1011.3 1010.0 0.2
07/07:00pm 21.7 13.7 1.9 27 9.3 S 33 46 18 25 1010.6 1009.2 0.2
07/06:30pm 22.7 15.0 2.2 26 9.8 SSW 32 46 17 25 1010.3 1008.9 0.2
07/06:00pm 23.1 15.6 1.5 24 10.2 SSW 30 46 16 25 1009.8 1008.4 0.2
07/05:30pm 23.8 15.8 1.4 23 10.7 SSW 33 52 18 28 1009.3 1007.9 0.2
07/05:13pm 24.2 15.7 1.2 22 10.9 SSW 35 54 19 29 1009.1 1007.7 0.2
07/05:00pm 24.7 17.1 2.8 24 10.7 SSW 32 46 17 25 1009.2 1007.8 0.2
07/04:30pm 25.3 17.7 2.7 23 11.1 SSW 32 43 17 23 1009.0 1007.6 0.2
07/04:00pm 25.8 18.1 2.5 22 11.5 SSW 32 46 17 25 1008.7 1007.3 0.2
07/03:30pm 26.1 19.7 3.4 23 11.4 SW 26 41 14 22 1008.6 1007.2 0.2
07/03:00pm 25.7 19.3 5.3 27 10.6 SSW 28 41 15 22 1008.5 1007.1 0.2
07/02:30pm 25.1 20.3 7.3 32 9.5 SSW 22 39 12 21 1008.5 1007.1 0.2
07/02:00pm 24.9 19.4 7.5 33 9.3 SSW 26 39 14 21 1008.6 1007.2 0.2
07/01:30pm 24.4 18.6 8.0 35 8.8 SSW 28 37 15 20 1008.7 1007.3 0.2
07/01:00pm 23.7 18.2 9.3 40 7.9 SSW 28 43 15 23 1008.6 1007.2 0.2
07/12:30pm 24.1 18.6 10.4 42 7.7 SSW 30 39 16 21 1008.5 1007.1 0.2
07/12:00pm 23.0 18.0 11.1 47 6.7 SSW 28 41 15 22 1008.3 1007.0 0.2
07/11:30am 22.4 16.8 10.2 46 6.8 S 30 39 16 21 1008.6 1007.2 0.2
07/11:00am 21.6 16.6 11.0 51 5.9 SSW 28 41 15 22 1008.6 1007.2 0.2
07/10:30am 21.1 16.5 10.9 52 5.7 SSW 26 32 14 17 1008.6 1007.2 0.2
07/10:00am 21.2 16.6 9.8 48 6.2 SW 24 30 13 16 1008.5 1007.1 0.0

Other formats

Comma delimited format used in spreadsheet applications
http://www.bom.gov.au/fwo/IDS60801/IDS60801.94684.axf

JavaScript Object Notation format (JSON) in row-major order
http://www.bom.gov.au/fwo/IDS60801/IDS60801.94684.json

Data quality

Most of these data are generated automatically and are frequently updated. Quality checks on data are not normally performed. It is possible for incorrect values to appear. Refer to information at About Latest Weather Observations and please check the disclaimer before using these data.